createdAt,value
2023-04-27T00:00:24.641Z,4.30
2023-04-27T00:05:29.547Z,4.26
2023-04-27T00:10:34.001Z,4.21
2023-04-27T00:15:37.090Z,4.14
2023-04-27T00:20:40.206Z,4.06
2023-04-27T00:25:44.655Z,4.01
2023-04-27T00:30:48.884Z,3.93
2023-04-27T00:35:51.994Z,3.83
2023-04-27T00:41:03.429Z,3.83
2023-04-27T00:46:06.813Z,3.79
2023-04-27T00:51:10.215Z,3.71
2023-04-27T00:56:14.754Z,3.66
2023-04-27T01:01:18.054Z,3.60
2023-04-27T01:06:22.294Z,3.48
2023-04-27T01:11:26.966Z,3.37
2023-04-27T01:16:29.996Z,3.35
2023-04-27T01:21:33.143Z,3.35
2023-04-27T01:26:37.632Z,3.30
2023-04-27T01:31:40.995Z,3.16
2023-04-27T01:36:44.093Z,3.16
2023-04-27T01:41:48.645Z,3.13
2023-04-27T01:46:52.248Z,3.09
2023-04-27T01:51:55.600Z,3.03
2023-04-27T01:57:00.214Z,2.99
2023-04-27T02:02:03.760Z,2.87
2023-04-27T02:07:07.060Z,2.89
2023-04-27T02:12:12.442Z,2.89
2023-04-27T02:17:15.617Z,2.84
2023-04-27T02:22:18.660Z,2.76
2023-04-27T02:27:23.100Z,2.63
2023-04-27T02:32:27.289Z,2.71
2023-04-27T02:37:30.445Z,2.60
2023-04-27T02:42:34.970Z,2.57
2023-04-27T02:47:39.369Z,2.62
2023-04-27T02:52:42.567Z,2.59
2023-04-27T02:57:47.187Z,2.56
2023-04-27T03:02:51.084Z,2.29
2023-04-27T03:07:54.346Z,2.46
2023-04-27T03:12:58.735Z,2.43
2023-04-27T03:18:01.995Z,2.40
2023-04-27T03:23:05.080Z,2.35
2023-04-27T03:28:09.463Z,2.36
2023-04-27T03:33:14.391Z,2.31
2023-04-27T03:38:17.919Z,2.32
2023-04-27T03:43:22.778Z,2.26
2023-04-27T03:48:25.843Z,2.16
2023-04-27T03:53:31.882Z,2.20
2023-04-27T03:58:37.130Z,2.09
2023-04-27T04:03:55.517Z,2.15
2023-04-27T04:08:59.362Z,2.07
2023-04-27T04:14:03.917Z,2.08
2023-04-27T04:19:07.235Z,2.10
2023-04-27T04:24:11.203Z,2.05
2023-04-27T04:29:17.273Z,2.09
2023-04-27T04:34:20.865Z,2.11
2023-04-27T04:39:24.372Z,2.16
2023-04-27T04:44:28.912Z,2.22
2023-04-27T04:49:32.345Z,2.23
2023-04-27T04:54:35.654Z,2.32
2023-04-27T04:59:40.419Z,2.22
2023-04-27T05:04:43.675Z,2.48
2023-04-27T05:09:46.728Z,2.53
2023-04-27T05:14:52.990Z,2.69
2023-04-27T05:19:56.183Z,2.81
2023-04-27T05:24:59.461Z,2.89
2023-04-27T05:30:04.144Z,3.01
2023-04-27T05:35:07.516Z,3.11
2023-04-27T05:40:11.089Z,3.11
2023-04-27T05:45:16.049Z,3.25
2023-04-27T05:50:19.434Z,3.41
2023-04-27T05:55:22.767Z,3.58
2023-04-27T06:00:27.219Z,3.68
2023-04-27T06:05:30.557Z,3.75
2023-04-27T06:10:33.947Z,3.86
2023-04-27T06:15:38.430Z,4.04
2023-04-27T06:20:42.179Z,4.18
2023-04-27T06:25:45.506Z,4.27
2023-04-27T06:30:50.046Z,4.42
2023-04-27T06:35:53.084Z,4.55
2023-04-27T06:40:57.009Z,4.64
2023-04-27T06:46:01.563Z,4.85
2023-04-27T06:51:05.140Z,4.96
2023-04-27T06:56:12.257Z,5.15
2023-04-27T07:01:16.901Z,5.31
2023-04-27T07:06:20.005Z,5.52
2023-04-27T07:11:23.154Z,5.79
2023-04-27T07:16:27.696Z,5.94
2023-04-27T07:21:30.943Z,6.21
2023-04-27T07:26:33.966Z,6.38
2023-04-27T07:31:38.606Z,6.64
2023-04-27T07:36:41.776Z,6.97
2023-04-27T07:41:44.885Z,7.30
2023-04-27T07:46:50.194Z,7.62
2023-04-27T07:51:55.614Z,8.16
2023-04-27T07:56:59.195Z,8.70
2023-04-27T08:02:18.562Z,9.14
2023-04-27T08:07:22.642Z,9.69
2023-04-27T08:12:25.869Z,9.99
2023-04-27T08:17:30.482Z,10.26
2023-04-27T08:22:34.200Z,10.63
2023-04-27T08:27:38.382Z,10.86
2023-04-27T08:32:42.913Z,11.03
2023-04-27T08:37:45.928Z,11.53
2023-04-27T08:42:56.297Z,11.83
2023-04-27T08:48:01.320Z,12.33
2023-04-27T08:53:06.718Z,12.57
2023-04-27T08:58:09.947Z,12.70
2023-04-27T09:03:24.457Z,12.92
2023-04-27T09:08:27.789Z,13.43
2023-04-27T09:13:36.612Z,13.67
2023-04-27T09:18:43.693Z,13.78
2023-04-27T09:23:47.137Z,13.92
2023-04-27T09:28:51.826Z,13.95
2023-04-27T09:33:57.586Z,14.03
2023-04-27T09:39:05.322Z,14.31
2023-04-27T09:44:10.110Z,14.43
2023-04-27T09:49:18.883Z,14.72
2023-04-27T09:54:26.171Z,14.81
2023-04-27T10:00:07.783Z,15.12
2023-04-27T10:05:29.889Z,15.22
2023-04-27T10:10:43.957Z,15.13
2023-04-27T10:15:47.180Z,15.12
2023-04-27T10:20:52.792Z,15.32
2023-04-27T10:25:57.349Z,15.24
2023-04-27T10:31:11.990Z,15.47
2023-04-27T10:36:17.247Z,15.52
2023-04-27T10:41:20.806Z,15.53
2023-04-27T10:46:23.963Z,15.81
2023-04-27T10:51:29.403Z,15.85
2023-04-27T10:56:33.929Z,15.83
2023-04-27T11:01:38.077Z,15.64
2023-04-27T11:06:46.925Z,15.51
2023-04-27T11:11:50.112Z,15.68
2023-04-27T11:16:53.292Z,15.64
2023-04-27T11:22:05.174Z,15.49
2023-04-27T11:27:08.181Z,15.62
2023-04-27T11:32:20.944Z,15.54
2023-04-27T11:37:27.982Z,15.84
2023-04-27T11:42:31.602Z,15.89
2023-04-27T11:47:35.678Z,16.02
2023-04-27T11:52:42.608Z,16.41
2023-04-27T11:57:46.077Z,16.93
2023-04-27T12:02:49.785Z,17.09
2023-04-27T12:07:55.025Z,17.21
2023-04-27T12:12:58.184Z,17.42
2023-04-27T12:18:01.641Z,17.80
2023-04-27T12:23:06.217Z,17.82
2023-04-27T12:28:09.226Z,17.75
2023-04-27T12:33:12.395Z,18.03
2023-04-27T12:38:16.989Z,18.05
2023-04-27T12:43:20.102Z,18.50
2023-04-27T12:48:23.686Z,18.07
2023-04-27T12:53:29.833Z,18.71
2023-04-27T12:58:33.068Z,18.91
2023-04-27T13:03:36.419Z,19.23
2023-04-27T13:08:42.189Z,19.23
2023-04-27T13:13:46.046Z,19.27
2023-04-27T13:18:50.642Z,19.42
2023-04-27T13:23:55.125Z,19.61
2023-04-27T13:28:58.406Z,19.86
2023-04-27T13:34:04.294Z,19.97
2023-04-27T13:39:08.934Z,19.95
2023-04-27T13:44:12.197Z,20.17
2023-04-27T13:49:15.583Z,20.19
2023-04-27T13:54:20.158Z,19.71
2023-04-27T13:59:26.328Z,19.39
2023-04-27T14:04:29.743Z,19.46
2023-04-27T14:09:34.477Z,19.64
2023-04-27T14:14:37.916Z,19.96
2023-04-27T14:19:41.737Z,19.76
2023-04-27T14:24:46.629Z,19.84
2023-04-27T14:29:49.986Z,19.74
2023-04-27T14:34:53.504Z,19.89
2023-04-27T14:39:58.685Z,19.83
2023-04-27T14:45:02.179Z,19.92
2023-04-27T14:50:06.421Z,19.93
2023-04-27T14:55:13.471Z,19.84
2023-04-27T15:00:19.344Z,19.65
2023-04-27T15:05:22.800Z,19.18
2023-04-27T15:10:27.955Z,18.91
2023-04-27T15:15:31.458Z,18.96
2023-04-27T15:20:34.732Z,18.89
2023-04-27T15:25:39.231Z,18.62
2023-04-27T15:30:42.756Z,18.36
2023-04-27T15:35:45.947Z,18.28
2023-04-27T15:40:50.935Z,18.34
2023-04-27T15:45:55.240Z,18.18
2023-04-27T15:50:58.308Z,17.78
2023-04-27T15:56:02.849Z,17.72
2023-04-27T16:01:06.147Z,17.62
2023-04-27T16:06:09.786Z,17.57
2023-04-27T16:11:14.477Z,17.66
2023-04-27T16:16:17.989Z,17.73
2023-04-27T16:21:21.548Z,17.64
2023-04-27T16:26:27.826Z,17.45
2023-04-27T16:31:31.570Z,17.56
2023-04-27T16:36:34.898Z,16.98
2023-04-27T16:41:39.257Z,16.77
2023-04-27T16:46:42.571Z,16.60
2023-04-27T16:51:46.134Z,16.42
2023-04-27T16:56:52.690Z,16.16
2023-04-27T17:01:59.974Z,16.03
2023-04-27T17:07:07.353Z,16.03
2023-04-27T17:12:13.803Z,15.86
2023-04-27T17:17:16.974Z,15.78
2023-04-27T17:22:20.266Z,15.65
2023-04-27T17:27:28.834Z,15.57
2023-04-27T17:32:34.762Z,15.43
2023-04-27T17:37:38.424Z,15.18
2023-04-27T17:42:43.464Z,15.02
2023-04-27T17:47:47.192Z,14.80
2023-04-27T17:52:51.242Z,14.56
2023-04-27T17:57:55.855Z,14.05
2023-04-27T18:02:59.193Z,14.11
2023-04-27T18:08:02.696Z,14.01
2023-04-27T18:13:07.302Z,13.87
2023-04-27T18:18:11.001Z,13.65
2023-04-27T18:23:14.537Z,13.51
2023-04-27T18:28:19.086Z,13.48
2023-04-27T18:33:22.867Z,13.35
2023-04-27T18:38:26.068Z,13.32
2023-04-27T18:43:30.721Z,13.25
2023-04-27T18:48:33.928Z,13.14
2023-04-27T18:53:37.554Z,13.07
2023-04-27T18:58:42.000Z,12.90
2023-04-27T19:03:45.290Z,12.58
2023-04-27T19:08:49.746Z,12.41
2023-04-27T19:13:57.471Z,12.46
2023-04-27T19:19:01.459Z,12.40
2023-04-27T19:24:05.125Z,12.25
2023-04-27T19:29:09.651Z,12.11
2023-04-27T19:34:12.921Z,11.90
2023-04-27T19:39:16.156Z,11.92
2023-04-27T19:44:21.927Z,11.86
2023-04-27T19:49:25.204Z,11.65
2023-04-27T19:54:28.415Z,11.60
2023-04-27T19:59:33.323Z,11.53
2023-04-27T20:04:36.840Z,11.43
2023-04-27T20:09:43.326Z,11.28
2023-04-27T20:14:49.391Z,11.20
2023-04-27T20:19:56.536Z,11.16
2023-04-27T20:25:00.281Z,11.09
2023-04-27T20:30:05.519Z,11.08
2023-04-27T20:35:11.278Z,11.02
2023-04-27T20:40:17.730Z,10.97
2023-04-27T20:45:23.131Z,10.86
2023-04-27T20:50:26.551Z,10.91
2023-04-27T20:55:29.825Z,10.92
2023-04-27T21:00:35.969Z,10.80
2023-04-27T21:05:39.127Z,10.68
2023-04-27T21:10:42.528Z,10.67
2023-04-27T21:15:47.071Z,10.63
2023-04-27T21:20:51.146Z,10.64
2023-04-27T21:25:54.613Z,10.59
2023-04-27T21:30:59.115Z,10.49
2023-04-27T21:36:03.869Z,10.52
2023-04-27T21:41:06.997Z,10.47
2023-04-27T21:46:11.661Z,10.40
2023-04-27T21:51:14.901Z,10.35
2023-04-27T21:56:18.032Z,10.29
2023-04-27T22:01:23.683Z,10.31
2023-04-27T22:06:27.624Z,10.31
2023-04-27T22:11:31.189Z,10.29
2023-04-27T22:16:36.464Z,10.29
2023-04-27T22:21:39.669Z,10.29
2023-04-27T22:26:43.703Z,10.26
2023-04-27T22:31:48.702Z,10.13
2023-04-27T22:36:52.242Z,10.23
2023-04-27T22:41:55.415Z,10.21
2023-04-27T22:47:00.999Z,10.20
2023-04-27T22:52:04.221Z,10.15
2023-04-27T22:57:07.357Z,10.05
2023-04-27T23:02:11.806Z,10.11
2023-04-27T23:07:18.139Z,10.08
2023-04-27T23:12:22.190Z,9.97
2023-04-27T23:17:30.901Z,10.06
2023-04-27T23:22:34.315Z,10.00
2023-04-27T23:27:37.406Z,10.04
2023-04-27T23:32:42.167Z,9.95
2023-04-27T23:37:45.372Z,9.76
2023-04-27T23:42:50.978Z,9.39
2023-04-27T23:47:58.183Z,9.43
2023-04-27T23:53:03.483Z,9.47
2023-04-27T23:58:06.680Z,9.63
